Terminal Aerodrome Forecast
Issued by NWS

Home | Current Version | Previous Version | Text Only | Print | Product List | Glossary On
Versions: 1 2 3 4 5 6 7 8 9 10 11 12 13 14 15 16 17
000
FTUS41 KBOX 210900 AAA
TAFHYA
TAF AMD
KHYA 210900Z 2109/2206 24008KT P6SM SKC
     FM211300 23012G20KT P6SM SKC
     FM211700 22016G31KT P6SM FEW250
     FM220500 21011G26KT P6SM SCT200=

USA.gov is the U.S. government's official web portal to all federal, state and local government web resources and services.